createdAt,value
2023-01-22T00:00:52.723Z,19.9
2023-01-22T00:03:25.309Z,19.4
2023-01-22T00:04:41.595Z,19.1
2023-01-22T00:05:57.885Z,20
2023-01-22T00:07:14.190Z,19.3
2023-01-22T00:08:29.502Z,20.3
2023-01-22T00:09:45.805Z,20
2023-01-22T00:11:02.089Z,19.6
2023-01-22T00:12:18.390Z,20.1
2023-01-22T00:13:34.682Z,19.9
2023-01-22T00:14:50.964Z,20.3
2023-01-22T00:16:07.265Z,20
2023-01-22T00:18:39.865Z,20.5
2023-01-22T00:19:56.149Z,20.8
2023-01-22T00:21:12.439Z,21.2
2023-01-22T00:22:28.750Z,21.4
2023-01-22T00:23:45.040Z,21
2023-01-22T00:26:16.640Z,20.6
2023-01-22T00:27:32.949Z,20.7
2023-01-22T00:28:49.228Z,21
2023-01-22T00:30:05.531Z,21
2023-01-22T00:31:21.827Z,20.8
2023-01-22T00:33:54.422Z,20.6
2023-01-22T00:35:10.703Z,21
2023-01-22T00:36:27.009Z,20.5
2023-01-22T00:37:43.293Z,20.6
2023-01-22T00:38:59.593Z,20.2
2023-01-22T00:40:15.892Z,20.4
2023-01-22T00:41:31.200Z,20.3
2023-01-22T00:42:47.502Z,20.3
2023-01-22T00:44:03.780Z,20.5
2023-01-22T00:45:20.089Z,20.2
2023-01-22T00:46:36.375Z,20.6
2023-01-22T00:47:52.668Z,20.5
2023-01-22T00:49:08.978Z,20.3
2023-01-22T00:50:25.270Z,19.8
2023-01-22T00:51:41.564Z,20.5
2023-01-22T00:52:56.880Z,20.9
2023-01-22T00:54:12.176Z,20.7
2023-01-22T00:55:28.484Z,20.9
2023-01-22T00:56:44.781Z,20.3
2023-01-22T00:58:01.069Z,21.3
2023-01-22T00:59:17.360Z,20.1
2023-01-22T01:00:33.668Z,20.5
2023-01-22T01:01:49.947Z,20.6
2023-01-22T01:04:22.546Z,21
2023-01-22T01:05:38.848Z,21
2023-01-22T01:06:55.143Z,20.2
2023-01-22T01:08:11.428Z,20.5
2023-01-22T01:09:27.732Z,20.5
2023-01-22T01:10:43.032Z,20.2
2023-01-22T01:11:59.325Z,21.3
2023-01-22T01:13:15.624Z,20.2
2023-01-22T01:14:31.915Z,20.1
2023-01-22T01:15:48.206Z,19.8
2023-01-22T01:17:04.516Z,20.1
2023-01-22T01:19:37.109Z,19.7
2023-01-22T01:20:53.398Z,19.7
2023-01-22T01:22:09.698Z,19.4
2023-01-22T01:23:25.980Z,19.3
2023-01-22T01:24:42.281Z,19.6
2023-01-22T01:25:58.563Z,20
2023-01-22T01:27:14.866Z,19.5
2023-01-22T01:28:30.187Z,19.4
2023-01-22T01:29:46.484Z,19.3
2023-01-22T01:31:01.795Z,18.4
2023-01-22T01:32:17.103Z,19.6
2023-01-22T01:33:33.393Z,18.7
2023-01-22T01:34:49.689Z,19.1
2023-01-22T01:36:05.993Z,19.2
2023-01-22T01:37:22.274Z,19.4
2023-01-22T01:38:38.568Z,19.3
2023-01-22T01:39:54.869Z,19
2023-01-22T01:41:11.159Z,19.2
2023-01-22T01:42:27.462Z,18.5
2023-01-22T01:43:43.752Z,19.4
2023-01-22T01:45:00.055Z,19.2
2023-01-22T01:46:16.336Z,18.2
2023-01-22T01:47:32.638Z,17.9
2023-01-22T01:48:47.948Z,18.4
2023-01-22T01:50:04.250Z,18.3
2023-01-22T01:51:20.552Z,18
2023-01-22T01:52:36.843Z,17.9
2023-01-22T01:53:53.139Z,18.2
2023-01-22T01:55:09.429Z,17.9
2023-01-22T01:56:25.729Z,17.8
2023-01-22T01:57:42.014Z,17.5
2023-01-22T01:58:58.307Z,17.1
2023-01-22T02:00:14.607Z,17.4
2023-01-22T02:01:30.904Z,17.3
2023-01-22T02:02:47.200Z,17.1
2023-01-22T02:04:03.488Z,17.9
2023-01-22T02:05:19.791Z,16.6
2023-01-22T02:06:35.092Z,16.8
2023-01-22T02:07:51.385Z,17.3
2023-01-22T02:09:07.686Z,17.1
2023-01-22T02:10:23.971Z,17.3
2023-01-22T02:12:56.574Z,17
2023-01-22T02:14:12.870Z,16.8
2023-01-22T02:15:29.157Z,17.6
2023-01-22T02:16:45.450Z,17.4
2023-01-22T02:18:01.750Z,17.2
2023-01-22T02:19:18.048Z,18.2
2023-01-22T02:20:34.346Z,17.7
2023-01-22T02:21:50.645Z,17.2
2023-01-22T02:23:05.950Z,17.3
2023-01-22T02:24:22.234Z,18.1
2023-01-22T02:25:38.531Z,17.6
2023-01-22T02:26:54.840Z,17.7
2023-01-22T02:28:11.133Z,17.9
2023-01-22T02:29:27.415Z,17.4
2023-01-22T02:30:43.707Z,17.9
2023-01-22T02:32:00.009Z,18.3
2023-01-22T02:33:16.308Z,18.3
2023-01-22T02:34:32.605Z,18.8
2023-01-22T02:35:48.887Z,18
2023-01-22T02:37:05.193Z,18.6
2023-01-22T02:38:21.484Z,18
2023-01-22T02:39:36.790Z,18.6
2023-01-22T02:40:53.085Z,18.5
2023-01-22T02:42:09.378Z,18
2023-01-22T02:43:25.684Z,18.6
2023-01-22T02:44:41.984Z,18.7
2023-01-22T02:45:58.281Z,18.8
2023-01-22T02:47:14.560Z,18.4
2023-01-22T02:48:30.855Z,19.3
2023-01-22T02:49:47.165Z,18.4
2023-01-22T02:51:03.451Z,18.6
2023-01-22T02:52:19.741Z,18.7
2023-01-22T02:53:36.047Z,19.4
2023-01-22T02:54:52.347Z,19.1
2023-01-22T02:56:08.742Z,19.2
2023-01-22T02:57:25.054Z,20
2023-01-22T02:58:41.349Z,19.1
2023-01-22T02:59:57.628Z,19.5
2023-01-22T03:01:13.928Z,18.9
2023-01-22T03:02:30.235Z,19.1
2023-01-22T03:03:46.520Z,20
2023-01-22T03:06:19.105Z,19.7
2023-01-22T03:07:35.397Z,19.7
2023-01-22T03:08:51.693Z,19.5
2023-01-22T03:10:08.004Z,19.2
2023-01-22T03:11:24.289Z,19.8
2023-01-22T03:13:55.904Z,19
2023-01-22T03:15:12.190Z,19.1
2023-01-22T03:16:28.477Z,18.9
2023-01-22T03:17:44.779Z,19.3
2023-01-22T03:19:01.074Z,19.8
2023-01-22T03:20:17.372Z,19.3
2023-01-22T03:21:33.672Z,18.9
2023-01-22T03:22:49.974Z,19.4
2023-01-22T03:24:06.266Z,19.5
2023-01-22T03:25:22.555Z,19.3
2023-01-22T03:26:38.845Z,19.7
2023-01-22T03:29:11.434Z,19.5
2023-01-22T03:30:26.760Z,20.1
2023-01-22T03:31:42.054Z,19.6
2023-01-22T03:32:58.360Z,19.8
2023-01-22T03:34:14.649Z,19.7
2023-01-22T03:35:30.947Z,20
2023-01-22T03:36:47.243Z,19.9
2023-01-22T03:38:03.547Z,19.5
2023-01-22T03:39:19.840Z,19.5
2023-01-22T03:40:36.137Z,19.9
2023-01-22T03:41:52.416Z,20.3
2023-01-22T03:44:24.035Z,19
2023-01-22T03:45:40.460Z,20.3
2023-01-22T03:46:56.745Z,19.9
2023-01-22T03:48:13.039Z,20.7
2023-01-22T03:49:29.336Z,19.7
2023-01-22T03:50:45.630Z,19.1
2023-01-22T03:52:01.936Z,20.1
2023-01-22T03:53:18.235Z,20.5
2023-01-22T03:54:34.520Z,20.7
2023-01-22T03:55:50.812Z,20.9
2023-01-22T03:57:07.099Z,20.6
2023-01-22T03:58:23.549Z,21
2023-01-22T03:59:38.851Z,20.2
2023-01-22T04:00:55.162Z,20.9
2023-01-22T04:02:11.440Z,20.9
2023-01-22T04:03:27.746Z,20.8
2023-01-22T04:04:44.030Z,20.7
2023-01-22T04:07:16.630Z,21.2
2023-01-22T04:08:32.922Z,20.9
2023-01-22T04:09:49.211Z,21.8
2023-01-22T04:11:05.521Z,21.2
2023-01-22T04:12:21.801Z,21.4
2023-01-22T04:14:54.394Z,21.4
2023-01-22T04:16:10.840Z,20.8
2023-01-22T04:17:26.133Z,21.4
2023-01-22T04:18:42.430Z,21.9
2023-01-22T04:19:58.726Z,21
2023-01-22T04:22:31.319Z,21.1
2023-01-22T04:23:47.611Z,21.4
2023-01-22T04:25:03.922Z,21.3
2023-01-22T04:26:20.212Z,20.8
2023-01-22T04:27:36.500Z,21.5
2023-01-22T04:30:09.087Z,21.6
2023-01-22T04:31:25.385Z,20.9
2023-01-22T04:32:41.826Z,22.3
2023-01-22T04:33:58.238Z,21.3
2023-01-22T04:35:14.531Z,21.9
2023-01-22T04:37:47.120Z,21.8
2023-01-22T04:39:03.413Z,22.1
2023-01-22T04:40:19.708Z,22.1
2023-01-22T04:41:36.001Z,20.6
2023-01-22T04:42:52.298Z,21.2
2023-01-22T04:45:24.898Z,22.2
2023-01-22T04:46:41.193Z,21.5
2023-01-22T04:47:57.477Z,21.3
2023-01-22T04:49:13.777Z,21.2
2023-01-22T04:50:29.082Z,21.9
2023-01-22T04:53:01.692Z,22.4
2023-01-22T04:54:17.978Z,22.7
2023-01-22T04:55:34.270Z,22.9
2023-01-22T04:56:50.563Z,23.5
2023-01-22T04:58:06.871Z,22.6
2023-01-22T04:59:23.160Z,22.3
2023-01-22T05:00:39.457Z,22
2023-01-22T05:01:55.751Z,22.2
2023-01-22T05:03:12.036Z,23.5
2023-01-22T05:04:28.337Z,22.6
2023-01-22T05:05:44.639Z,23.1
2023-01-22T05:06:59.933Z,22.7
2023-01-22T05:08:16.244Z,21.9
2023-01-22T05:09:32.537Z,22.7
2023-01-22T05:10:48.822Z,22.8
2023-01-22T05:12:04.133Z,23
2023-01-22T05:13:19.452Z,22.9
2023-01-22T05:14:35.742Z,22.6
2023-01-22T05:15:52.041Z,22.8
2023-01-22T05:17:08.334Z,22.2
2023-01-22T05:18:24.630Z,22.6
2023-01-22T05:19:40.935Z,22.6
2023-01-22T05:20:57.216Z,22.4
2023-01-22T05:22:13.513Z,22.6
2023-01-22T05:23:29.808Z,21.5
2023-01-22T05:24:46.107Z,23.2
2023-01-22T05:26:02.542Z,22.8
2023-01-22T05:27:18.956Z,23
2023-01-22T05:28:35.252Z,23.1
2023-01-22T05:31:07.846Z,21.9
2023-01-22T05:32:24.138Z,23
2023-01-22T05:33:40.436Z,22.6
2023-01-22T05:34:56.729Z,22.6
2023-01-22T05:36:13.016Z,22.4
2023-01-22T05:38:45.620Z,22
2023-01-22T05:40:01.913Z,21.5
2023-01-22T05:41:18.195Z,21.9
2023-01-22T05:42:33.523Z,22.3
2023-01-22T05:45:06.234Z,22.7
2023-01-22T05:46:22.533Z,22.3
2023-01-22T05:47:38.823Z,22.7
2023-01-22T05:48:55.116Z,22.2
2023-01-22T05:50:11.416Z,22
2023-01-22T05:51:27.706Z,22.4
2023-01-22T05:52:44.001Z,21.8
2023-01-22T05:54:00.305Z,21.6
2023-01-22T05:55:16.601Z,22.3
2023-01-22T05:56:32.876Z,21.8
2023-01-22T05:57:48.213Z,22.2
2023-01-22T05:59:03.521Z,22.1
2023-01-22T06:01:36.100Z,23.1
2023-01-22T06:02:52.405Z,22.4
2023-01-22T06:04:08.697Z,22.4
2023-01-22T06:05:24.995Z,23.1
2023-01-22T06:06:41.287Z,22
2023-01-22T06:07:57.583Z,22.3
2023-01-22T06:09:13.878Z,22.1
2023-01-22T06:10:30.169Z,22.8
2023-01-22T06:11:46.457Z,22.1
2023-01-22T06:13:02.757Z,22.4
2023-01-22T06:14:19.063Z,22.2
2023-01-22T06:15:34.365Z,23
2023-01-22T06:16:50.662Z,21.9
2023-01-22T06:18:06.949Z,22.4
2023-01-22T06:19:23.250Z,21.8
2023-01-22T06:20:39.542Z,22
2023-01-22T06:21:55.842Z,22.4
2023-01-22T06:24:28.420Z,21.8
2023-01-22T06:25:44.719Z,22.2
2023-01-22T06:27:01.025Z,22.1
2023-01-22T06:28:17.321Z,22.5
2023-01-22T06:29:33.607Z,22.1
2023-01-22T06:30:49.895Z,22.4
2023-01-22T06:32:05.164Z,23.3
2023-01-22T06:33:21.458Z,22.7
2023-01-22T06:34:37.757Z,23
2023-01-22T06:35:54.003Z,22.8
2023-01-22T06:37:10.253Z,23.5
2023-01-22T06:39:42.731Z,22.8
2023-01-22T06:40:59.025Z,23.1
2023-01-22T06:42:15.270Z,23.6
2023-01-22T06:43:31.510Z,23.6
2023-01-22T06:44:47.749Z,24
2023-01-22T06:46:03.990Z,23.3
2023-01-22T06:47:20.243Z,24
2023-01-22T06:48:35.486Z,24
2023-01-22T06:49:51.739Z,24.4
2023-01-22T06:51:07.978Z,24
2023-01-22T06:52:24.219Z,23.4
2023-01-22T06:53:40.460Z,22.6
2023-01-22T06:54:56.690Z,23.4
2023-01-22T06:56:12.941Z,23.3
2023-01-22T06:57:29.172Z,23.1
2023-01-22T06:58:45.426Z,22.5
2023-01-22T07:00:01.658Z,23.3
2023-01-22T07:01:17.905Z,21.9
2023-01-22T07:02:34.152Z,21.9
2023-01-22T07:03:50.384Z,23.3
2023-01-22T07:05:05.648Z,22.6
2023-01-22T07:06:21.879Z,22.8
2023-01-22T07:07:38.123Z,22.6
2023-01-22T07:08:54.358Z,22.7
2023-01-22T07:10:10.605Z,22
2023-01-22T07:11:26.848Z,22.8
2023-01-22T07:12:43.083Z,22.6
2023-01-22T07:13:59.332Z,23
2023-01-22T07:15:15.571Z,23.3
2023-01-22T07:16:31.802Z,24.1
2023-01-22T07:17:48.041Z,23.3
2023-01-22T07:19:04.294Z,23.2
2023-01-22T07:20:20.534Z,22.8
2023-01-22T07:21:36.772Z,22.5
2023-01-22T07:22:52.038Z,23.2
2023-01-22T07:24:08.000Z,23
2023-01-22T07:25:24.516Z,23.1
2023-01-22T07:26:40.756Z,24.1
2023-01-22T07:27:56.989Z,22.5
2023-01-22T07:30:29.466Z,23.5
2023-01-22T07:31:45.709Z,23.9
2023-01-22T07:33:01.967Z,23.8
2023-01-22T07:34:18.190Z,23.6
2023-01-22T07:35:34.444Z,23.2
2023-01-22T07:38:06.928Z,22.7
2023-01-22T07:39:22.174Z,22.7
2023-01-22T07:40:38.412Z,22.7
2023-01-22T07:41:54.651Z,22.7
2023-01-22T07:43:10.000Z,22.4
2023-01-22T07:44:27.144Z,22.8
2023-01-22T07:45:43.390Z,23
2023-01-22T07:48:15.860Z,23.1
2023-01-22T07:49:31.131Z,23.2
2023-01-22T07:50:46.374Z,23.5
2023-01-22T07:52:02.635Z,22.5
2023-01-22T07:53:18.867Z,22.5
2023-01-22T07:54:35.117Z,22
2023-01-22T07:55:51.356Z,22.9
2023-01-22T07:58:23.827Z,21.5
2023-01-22T07:59:40.061Z,21.6
2023-01-22T08:00:55.337Z,21.8
2023-01-22T08:02:11.566Z,21.9
2023-01-22T08:03:27.828Z,22.5
2023-01-22T08:04:44.060Z,22.2
2023-01-22T08:06:00.290Z,22.3
2023-01-22T08:07:16.540Z,22.1
2023-01-22T08:08:32.775Z,22.6
2023-01-22T08:09:49.022Z,22.2
2023-01-22T08:11:05.256Z,21.9
2023-01-22T08:12:21.502Z,22.5
2023-01-22T08:13:37.741Z,22.5
2023-01-22T08:14:53.976Z,22.4
2023-01-22T08:16:10.228Z,21.4
2023-01-22T08:18:41.723Z,21.7
2023-01-22T08:19:56.987Z,21.2
2023-01-22T08:21:13.236Z,21.6
2023-01-22T08:22:29.457Z,20.4
2023-01-22T08:23:45.715Z,20
2023-01-22T08:25:01.955Z,20.5
2023-01-22T08:26:17.209Z,20.2
2023-01-22T08:27:32.467Z,19.7
2023-01-22T08:28:48.718Z,20
2023-01-22T08:30:04.946Z,20.2
2023-01-22T08:31:21.183Z,19.7
2023-01-22T08:32:37.428Z,20.2
2023-01-22T08:33:53.676Z,20.8
2023-01-22T08:35:09.904Z,19.8
2023-01-22T08:36:26.163Z,20.1
2023-01-22T08:37:42.389Z,19.3
2023-01-22T08:38:58.627Z,19.4
2023-01-22T08:40:14.876Z,19.3
2023-01-22T08:41:31.108Z,19
2023-01-22T08:42:47.355Z,19.5
2023-01-22T08:44:02.619Z,18.9
2023-01-22T08:45:18.866Z,19.1
2023-01-22T08:46:35.097Z,18.6
2023-01-22T08:49:07.591Z,18.1
2023-01-22T08:50:23.829Z,18.4
2023-01-22T08:51:40.059Z,18.4
2023-01-22T08:52:56.296Z,18.2
2023-01-22T08:54:12.544Z,18.3
2023-01-22T08:55:28.774Z,18.5
2023-01-22T08:56:45.032Z,17.8
2023-01-22T08:58:01.272Z,17.3
2023-01-22T08:59:17.501Z,16.4
2023-01-22T09:01:49.995Z,16.9
2023-01-22T09:03:06.221Z,17.5
2023-01-22T09:04:21.484Z,16.7
2023-01-22T09:05:37.730Z,16.8
2023-01-22T09:06:53.967Z,16.4
2023-01-22T09:08:10.217Z,16.7
2023-01-22T09:09:26.446Z,16.6
2023-01-22T09:10:42.693Z,15.2
2023-01-22T09:11:58.920Z,16.6
2023-01-22T09:13:15.167Z,17
2023-01-22T09:14:31.416Z,16.3
2023-01-22T09:15:47.652Z,17.1
2023-01-22T09:17:03.897Z,16.8
2023-01-22T09:19:36.370Z,16.3
2023-01-22T09:20:51.632Z,16.9
2023-01-22T09:22:07.882Z,16.6
2023-01-22T09:23:24.118Z,17.2
2023-01-22T09:24:40.353Z,16.2
2023-01-22T09:25:56.597Z,16.7
2023-01-22T09:27:12.842Z,16.6
2023-01-22T09:28:29.082Z,16.4
2023-01-22T09:29:45.320Z,16.3
2023-01-22T09:31:01.569Z,15.7
2023-01-22T09:32:17.804Z,16
2023-01-22T09:33:34.033Z,15.8
2023-01-22T09:34:50.279Z,15.1
2023-01-22T09:36:06.533Z,14.2
2023-01-22T09:37:21.777Z,14.9
2023-01-22T09:38:38.012Z,14.5
2023-01-22T09:39:54.262Z,14.3
2023-01-22T09:41:10.495Z,14.6
2023-01-22T09:42:26.748Z,15.4
2023-01-22T09:43:42.974Z,16.1
2023-01-22T09:44:59.229Z,16.8
2023-01-22T09:46:15.468Z,18.3
2023-01-22T09:47:31.713Z,18.7
2023-01-22T09:50:04.196Z,16.6
2023-01-22T09:51:20.421Z,15.4
2023-01-22T09:52:36.673Z,15
2023-01-22T09:53:51.918Z,14.5
2023-01-22T09:55:08.165Z,14.9
2023-01-22T09:56:24.411Z,14.2
2023-01-22T09:57:40.645Z,14.5
2023-01-22T09:58:56.897Z,14.5
2023-01-22T10:01:29.382Z,13.9
2023-01-22T10:02:45.616Z,14.2
2023-01-22T10:04:01.847Z,14.5
2023-01-22T10:05:18.106Z,14.1
2023-01-22T10:06:34.328Z,14.2
2023-01-22T10:07:50.586Z,14.7
2023-01-22T10:09:06.829Z,15.4
2023-01-22T10:10:22.087Z,15.7
2023-01-22T10:11:38.320Z,16.4
2023-01-22T10:12:54.556Z,16
2023-01-22T10:14:10.793Z,15.4
2023-01-22T10:15:27.041Z,16.3
2023-01-22T10:16:43.275Z,15.4
2023-01-22T10:17:59.520Z,15.8
2023-01-22T10:20:32.010Z,16.2
2023-01-22T10:21:48.254Z,16.8
2023-01-22T10:23:04.487Z,17.2
2023-01-22T10:24:20.731Z,16.8
2023-01-22T10:25:36.961Z,17.4
2023-01-22T10:26:52.226Z,16.5
2023-01-22T10:28:08.472Z,15.8
2023-01-22T10:29:24.702Z,15.6
2023-01-22T10:30:40.949Z,15.4
2023-01-22T10:31:57.194Z,16.4
2023-01-22T10:33:13.426Z,15.6
2023-01-22T10:34:29.663Z,15.6
2023-01-22T10:35:45.910Z,15.9
2023-01-22T10:37:02.147Z,15.3
2023-01-22T10:38:18.393Z,15.9
2023-01-22T10:39:34.638Z,16
2023-01-22T10:40:50.880Z,16.7
2023-01-22T10:43:23.347Z,15.9
2023-01-22T10:44:38.612Z,15.6
2023-01-22T10:45:54.864Z,16
2023-01-22T10:47:11.093Z,16.1
2023-01-22T10:48:27.342Z,15.6
2023-01-22T10:50:59.809Z,16.2
2023-01-22T10:52:16.068Z,16
2023-01-22T10:53:32.302Z,16.8
2023-01-22T10:54:48.542Z,16.3
2023-01-22T10:56:04.778Z,15.9
2023-01-22T10:58:37.266Z,16.3
2023-01-22T10:59:52.524Z,16.7
2023-01-22T11:01:07.779Z,16.3
2023-01-22T11:02:24.022Z,17
2023-01-22T11:03:40.266Z,17.5
2023-01-22T11:06:12.749Z,17.4
2023-01-22T11:07:28.990Z,17.9
2023-01-22T11:08:45.227Z,18
2023-01-22T11:10:01.479Z,18.5
2023-01-22T11:11:17.717Z,17.2
2023-01-22T11:12:33.952Z,17.4
2023-01-22T11:13:50.189Z,17.9
2023-01-22T11:15:06.422Z,18.6
2023-01-22T11:16:22.678Z,18
2023-01-22T11:17:37.934Z,19.4
2023-01-22T11:18:54.172Z,18.9
2023-01-22T11:20:10.405Z,19.5
2023-01-22T11:21:26.646Z,18.9
2023-01-22T11:22:42.889Z,18.9
2023-01-22T11:25:15.380Z,18.9
2023-01-22T11:26:30.635Z,18.6
2023-01-22T11:27:45.901Z,18.8
2023-01-22T11:29:02.141Z,19
2023-01-22T11:30:18.377Z,18.6
2023-01-22T11:31:34.620Z,18.7
2023-01-22T11:32:50.853Z,19.1
2023-01-22T11:34:07.108Z,18
2023-01-22T11:35:23.333Z,19.5
2023-01-22T11:36:39.587Z,18.1
2023-01-22T11:37:55.828Z,18
2023-01-22T11:39:12.057Z,18.3
2023-01-22T11:40:27.330Z,18.7
2023-01-22T11:41:42.580Z,19.3
2023-01-22T11:45:31.299Z,18.7
2023-01-22T11:46:47.554Z,17.8
2023-01-22T11:48:03.789Z,18.3
2023-01-22T11:49:20.025Z,18.4
2023-01-22T11:51:52.515Z,16.9
2023-01-22T11:53:08.745Z,17.4
2023-01-22T11:54:24.998Z,16.6
2023-01-22T11:55:41.240Z,16.6
2023-01-22T11:56:57.473Z,16.2
2023-01-22T11:59:29.962Z,16.2
2023-01-22T12:00:45.210Z,15.7
2023-01-22T12:02:00.468Z,15.7
2023-01-22T12:03:16.714Z,16.1
2023-01-22T12:04:32.957Z,15.1
2023-01-22T12:05:49.187Z,15.8
2023-01-22T12:07:05.436Z,16
2023-01-22T12:08:21.679Z,15.4
2023-01-22T12:09:37.913Z,15.4
2023-01-22T12:10:54.150Z,15.3
2023-01-22T12:12:10.400Z,15.6
2023-01-22T12:13:26.643Z,15.5
2023-01-22T12:14:41.909Z,15.4
2023-01-22T12:15:57.169Z,15
2023-01-22T12:17:13.410Z,15.7
2023-01-22T12:18:29.641Z,15.4
2023-01-22T12:19:45.884Z,15.2
2023-01-22T12:21:02.131Z,15.6
2023-01-22T12:22:18.376Z,15.1
2023-01-22T12:24:50.847Z,14.9
2023-01-22T12:26:07.090Z,14.7
2023-01-22T12:27:23.342Z,14.5
2023-01-22T12:28:39.567Z,14.9
2023-01-22T12:29:55.817Z,14.2
2023-01-22T12:31:12.066Z,14.4
2023-01-22T12:32:27.318Z,14.4
2023-01-22T12:33:43.553Z,14
2023-01-22T12:34:59.797Z,13.9
2023-01-22T12:36:16.037Z,14.8
2023-01-22T12:37:32.284Z,14.2
2023-01-22T12:38:48.510Z,14.1
2023-01-22T12:40:04.765Z,14.5
2023-01-22T12:41:20.995Z,14.2
2023-01-22T12:42:36.253Z,14.6
2023-01-22T12:45:07.761Z,14.9
2023-01-22T12:47:40.245Z,14.1
2023-01-22T12:48:56.474Z,13.6
2023-01-22T12:50:12.724Z,14.3
2023-01-22T12:52:45.202Z,14.9
2023-01-22T12:54:01.446Z,14.8
2023-01-22T12:55:17.683Z,14.5
2023-01-22T12:57:50.169Z,14.4
2023-01-22T12:59:06.409Z,14.6
2023-01-22T13:00:21.668Z,14.4
2023-01-22T13:01:36.938Z,14.7
2023-01-22T13:02:52.181Z,14.9
2023-01-22T13:04:08.426Z,14.8
2023-01-22T13:05:24.677Z,14.6
2023-01-22T13:06:40.906Z,14.3
2023-01-22T13:07:57.143Z,14.4
2023-01-22T13:09:13.382Z,14.8
2023-01-22T13:10:29.621Z,15
2023-01-22T13:11:45.875Z,14.6
2023-01-22T13:13:02.116Z,14
2023-01-22T13:14:18.342Z,15.4
2023-01-22T13:15:33.611Z,13.8
2023-01-22T13:16:48.865Z,14.7
2023-01-22T13:18:05.118Z,14.2
2023-01-22T13:19:21.346Z,14.2
2023-01-22T13:20:37.595Z,14.1
2023-01-22T13:21:53.830Z,14
2023-01-22T13:23:10.082Z,14
2023-01-22T13:24:26.318Z,14.3
2023-01-22T13:25:42.560Z,14.7
2023-01-22T13:26:58.797Z,15.8
2023-01-22T13:28:15.048Z,14.8
2023-01-22T13:29:31.290Z,14.7
2023-01-22T13:30:47.515Z,13.8
2023-01-22T13:32:03.764Z,14.3
2023-01-22T13:33:19.016Z,13.7
2023-01-22T13:34:35.251Z,14.4
2023-01-22T13:35:51.502Z,13.6
2023-01-22T13:37:07.737Z,13.8
2023-01-22T13:38:23.973Z,12.8
2023-01-22T13:39:40.228Z,13.5
2023-01-22T13:40:56.472Z,12.8
2023-01-22T13:42:12.714Z,13.2
2023-01-22T13:43:28.937Z,13.6
2023-01-22T13:44:45.184Z,13.3
2023-01-22T13:46:01.420Z,13.2
2023-01-22T13:47:17.654Z,13.4
2023-01-22T13:48:33.897Z,13.5
2023-01-22T13:49:49.146Z,13.8
2023-01-22T13:51:05.395Z,13.7
2023-01-22T13:52:21.641Z,13.5
2023-01-22T13:53:37.882Z,14.1
2023-01-22T13:54:54.113Z,14.1
2023-01-22T13:56:10.364Z,14.2
2023-01-22T13:57:26.593Z,14.1
2023-01-22T13:58:42.845Z,14.1
2023-01-22T13:59:59.081Z,13.8
2023-01-22T14:01:15.309Z,13.8
2023-01-22T14:02:31.559Z,14
2023-01-22T14:03:47.805Z,14.4
2023-01-22T14:05:04.046Z,14.3
2023-01-22T14:06:19.289Z,13.7
2023-01-22T14:07:35.529Z,14.3
2023-01-22T14:08:51.783Z,14.4
2023-01-22T14:10:08.025Z,15
2023-01-22T14:12:40.495Z,13.7
2023-01-22T14:13:56.735Z,14.6
2023-01-22T14:15:12.981Z,14.3
2023-01-22T14:16:29.230Z,13.5
2023-01-22T14:19:01.000Z,13.9
2023-01-22T14:20:17.949Z,13.7
2023-01-22T14:21:34.195Z,13.2
2023-01-22T14:22:49.448Z,13.4
2023-01-22T14:24:05.677Z,13.4
2023-01-22T14:25:21.923Z,13.2
2023-01-22T14:26:38.173Z,13.3
2023-01-22T14:27:54.416Z,12.7
2023-01-22T14:29:10.658Z,13.1
2023-01-22T14:30:26.882Z,12.3
2023-01-22T14:31:43.130Z,13.1
2023-01-22T14:32:59.363Z,12.8
2023-01-22T14:34:15.612Z,12.8
2023-01-22T14:35:31.858Z,12.2
2023-01-22T14:36:48.087Z,13
2023-01-22T14:38:04.335Z,12.6
2023-01-22T14:39:19.583Z,12.7
2023-01-22T14:40:35.833Z,12.7
2023-01-22T14:41:52.064Z,13.1
2023-01-22T14:43:08.315Z,13.6
2023-01-22T14:44:24.547Z,13.7
2023-01-22T14:45:40.799Z,13.7
2023-01-22T14:46:57.038Z,14
2023-01-22T14:48:13.277Z,13.9
2023-01-22T14:49:29.528Z,14.5
2023-01-22T14:50:45.750Z,13.9
2023-01-22T14:52:01.998Z,14.6
2023-01-22T14:53:18.248Z,14.6
2023-01-22T14:54:34.489Z,14.4
2023-01-22T14:55:49.739Z,14.6
2023-01-22T14:57:05.972Z,14.9
2023-01-22T14:58:22.226Z,15.2
2023-01-22T14:59:38.451Z,19
2023-01-22T15:00:54.709Z,15.1
2023-01-22T15:02:10.935Z,15.2
2023-01-22T15:03:27.172Z,15.9
2023-01-22T15:04:43.423Z,15.7
2023-01-22T15:05:59.675Z,14.9
2023-01-22T15:07:15.901Z,14.5
2023-01-22T15:08:32.145Z,14.4
2023-01-22T15:09:48.389Z,14.4
2023-01-22T15:11:04.626Z,14.7
2023-01-22T15:12:19.886Z,14.8
2023-01-22T15:13:36.130Z,14.2
2023-01-22T15:14:52.368Z,15.5
2023-01-22T15:17:24.850Z,14.3
2023-01-22T15:18:41.096Z,14.9
2023-01-22T15:19:57.336Z,15
2023-01-22T15:21:13.564Z,15
2023-01-22T15:22:29.814Z,15.5
2023-01-22T15:25:02.303Z,16
2023-01-22T15:26:18.536Z,14.8
2023-01-22T15:27:34.780Z,15.3
2023-01-22T15:28:50.021Z,15.8
2023-01-22T15:30:06.278Z,15.3
2023-01-22T15:31:22.518Z,15.7
2023-01-22T15:32:38.751Z,15.7
2023-01-22T15:33:54.994Z,16.4
2023-01-22T15:35:11.237Z,16.2
2023-01-22T15:36:27.472Z,16
2023-01-22T15:37:43.719Z,17.2
2023-01-22T15:38:59.958Z,16.4
2023-01-22T15:41:32.442Z,16.3
2023-01-22T15:42:47.699Z,16.8
2023-01-22T15:44:02.969Z,17.4
2023-01-22T15:45:19.202Z,18.4
2023-01-22T15:47:51.691Z,18.1
2023-01-22T15:49:07.913Z,17
2023-01-22T15:50:24.168Z,17.9
2023-01-22T15:51:40.412Z,17.8
2023-01-22T15:52:56.636Z,17.8
2023-01-22T15:55:29.130Z,17.8
2023-01-22T15:56:45.362Z,18.8
2023-01-22T15:58:01.612Z,17.7
2023-01-22T15:59:16.871Z,17.7
2023-01-22T16:00:32.133Z,17.9
2023-01-22T16:01:48.368Z,17.4
2023-01-22T16:03:04.616Z,18
2023-01-22T16:04:20.857Z,18.2
2023-01-22T16:05:37.098Z,17.8
2023-01-22T16:06:53.331Z,18
2023-01-22T16:08:09.565Z,18.7
2023-01-22T16:09:25.869Z,18.3
2023-01-22T16:10:42.159Z,18
2023-01-22T16:11:58.405Z,17.3
2023-01-22T16:13:13.676Z,17.5
2023-01-22T16:14:28.916Z,17.3
2023-01-22T16:15:45.221Z,17.9
2023-01-22T16:18:17.800Z,18
2023-01-22T16:19:34.107Z,17.5
2023-01-22T16:20:50.399Z,18
2023-01-22T16:22:06.699Z,17.9
2023-01-22T16:23:22.984Z,17.5
2023-01-22T16:24:39.278Z,17.4
2023-01-22T16:25:55.574Z,16.2
2023-01-22T16:27:11.872Z,17.1
2023-01-22T16:28:28.162Z,16.9
2023-01-22T16:29:44.458Z,16.8
2023-01-22T16:30:59.781Z,16.9
2023-01-22T16:32:16.087Z,16.6
2023-01-22T16:33:32.372Z,16.8
2023-01-22T16:34:48.667Z,16.8
2023-01-22T16:36:04.957Z,16.7
2023-01-22T16:38:37.544Z,15.7
2023-01-22T16:41:09.167Z,15.4
2023-01-22T16:42:24.476Z,15.7
2023-01-22T16:43:39.782Z,16.1
2023-01-22T16:44:56.074Z,15.2
2023-01-22T16:46:12.381Z,14.5
2023-01-22T16:47:28.668Z,14.7
2023-01-22T16:48:44.976Z,15.2
2023-01-22T16:51:17.550Z,15.1
2023-01-22T16:52:33.859Z,15.7
2023-01-22T16:53:50.152Z,15.2
2023-01-22T16:55:06.442Z,15.3
2023-01-22T16:56:22.731Z,16
2023-01-22T16:57:39.027Z,15.5
2023-01-22T16:58:55.277Z,15.3
2023-01-22T17:00:10.546Z,15.5
2023-01-22T17:01:26.838Z,15.3
2023-01-22T17:02:43.096Z,15.3
2023-01-22T17:03:59.318Z,14.9
2023-01-22T17:05:15.590Z,15.1
2023-01-22T17:06:31.881Z,14.8
2023-01-22T17:07:48.166Z,15
2023-01-22T17:09:04.469Z,15.5
2023-01-22T17:10:19.782Z,15
2023-01-22T17:11:35.099Z,14.9
2023-01-22T17:12:51.381Z,15
2023-01-22T17:14:07.680Z,15.1
2023-01-22T17:15:23.983Z,14.8
2023-01-22T17:16:40.267Z,15.3
2023-01-22T17:17:56.571Z,15.8
2023-01-22T17:19:12.868Z,15.1
2023-01-22T17:20:29.152Z,16.1
2023-01-22T17:21:45.460Z,15.9
2023-01-22T17:23:01.753Z,15.2
2023-01-22T17:24:17.071Z,16.9
2023-01-22T17:25:32.384Z,16.6
2023-01-22T17:26:48.666Z,15.2
2023-01-22T17:28:04.972Z,16.5
2023-01-22T17:29:21.256Z,16.5
2023-01-22T17:30:37.553Z,14.4
2023-01-22T17:31:53.840Z,15.3
2023-01-22T17:33:10.153Z,15.8
2023-01-22T17:34:26.442Z,16
2023-01-22T17:35:42.730Z,16.5
2023-01-22T17:36:59.029Z,16.2
2023-01-22T17:38:15.315Z,16.7
2023-01-22T17:39:31.624Z,16.6
2023-01-22T17:42:04.204Z,16.4
2023-01-22T17:43:19.521Z,16.2
2023-01-22T17:44:35.815Z,16.2
2023-01-22T17:45:52.104Z,17.6
2023-01-22T17:47:08.400Z,17.6
2023-01-22T17:49:40.990Z,16.6
2023-01-22T17:50:56.308Z,16.6
2023-01-22T17:52:11.624Z,16.8
2023-01-22T17:53:27.909Z,16.1
2023-01-22T17:54:44.214Z,16.8
2023-01-22T17:57:16.794Z,16.1
2023-01-22T17:58:33.102Z,16.7
2023-01-22T17:59:49.386Z,17.1
2023-01-22T18:01:05.689Z,17.3
2023-01-22T18:02:21.977Z,16
2023-01-22T18:03:38.267Z,16.6
2023-01-22T18:04:54.577Z,17.2
2023-01-22T18:06:10.831Z,16.8
2023-01-22T18:07:27.109Z,15.7
2023-01-22T18:08:42.437Z,15.3
2023-01-22T18:09:58.727Z,15.8
2023-01-22T18:11:15.024Z,15.5
2023-01-22T18:12:31.302Z,15.1
2023-01-22T18:13:47.604Z,15.6
2023-01-22T18:15:03.896Z,15.8
2023-01-22T18:16:20.191Z,14.7
2023-01-22T18:17:36.501Z,15
2023-01-22T18:20:08.110Z,15.4
2023-01-22T18:21:23.407Z,15.2
2023-01-22T18:22:39.700Z,14.7